sensor_id;sensor_type;location;lat;lon;timestamp;pressure;altitude;pressure_sealevel;temperature;humidity
57412;BME280;43247;52.828;-8.980;2023-03-23T00:00:29;98586.02;;;8.55;84.34
57412;BME280;43247;52.828;-8.980;2023-03-23T00:01:29;98587.52;;;8.56;84.32
57412;BME280;43247;52.828;-8.980;2023-03-23T00:02:31;98584.33;;;8.57;84.29
57412;BME280;43247;52.828;-8.980;2023-03-23T00:03:29;98583.39;;;8.57;84.29
57412;BME280;43247;52.828;-8.980;2023-03-23T00:04:30;98585.10;;;8.55;84.37
57412;BME280;43247;52.828;-8.980;2023-03-23T00:05:30;98587.06;;;8.54;84.40
57412;BME280;43247;52.828;-8.980;2023-03-23T00:06:30;98586.47;;;8.53;84.48
57412;BME280;43247;52.828;-8.980;2023-03-23T00:07:30;98585.80;;;8.52;84.57
57412;BME280;43247;52.828;-8.980;2023-03-23T00:08:31;98584.58;;;8.51;84.58
57412;BME280;43247;52.828;-8.980;2023-03-23T00:09:30;98587.74;;;8.51;84.53
57412;BME280;43247;52.828;-8.980;2023-03-23T00:10:31;98585.73;;;8.49;84.70
57412;BME280;43247;52.828;-8.980;2023-03-23T00:11:32;98585.41;;;8.49;84.62
57412;BME280;43247;52.828;-8.980;2023-03-23T00:12:31;98583.12;;;8.49;84.69
57412;BME280;43247;52.828;-8.980;2023-03-23T00:13:31;98579.72;;;8.48;84.68
57412;BME280;43247;52.828;-8.980;2023-03-23T00:14:32;98580.19;;;8.48;84.63
57412;BME280;43247;52.828;-8.980;2023-03-23T00:15:31;98578.51;;;8.47;84.66
57412;BME280;43247;52.828;-8.980;2023-03-23T00:16:33;98577.53;;;8.46;84.67
57412;BME280;43247;52.828;-8.980;2023-03-23T00:17:33;98572.79;;;8.45;84.71
57412;BME280;43247;52.828;-8.980;2023-03-23T00:18:32;98569.98;;;8.45;84.68
57412;BME280;43247;52.828;-8.980;2023-03-23T00:19:32;98565.88;;;8.44;84.72
57412;BME280;43247;52.828;-8.980;2023-03-23T00:20:32;98565.03;;;8.44;84.71
57412;BME280;43247;52.828;-8.980;2023-03-23T00:21:35;98560.65;;;8.43;84.72
57412;BME280;43247;52.828;-8.980;2023-03-23T00:22:33;98559.55;;;8.43;84.75
57412;BME280;43247;52.828;-8.980;2023-03-23T00:23:33;98564.24;;;8.43;84.77
57412;BME280;43247;52.828;-8.980;2023-03-23T00:24:33;98565.83;;;8.42;84.81
57412;BME280;43247;52.828;-8.980;2023-03-23T00:25:33;98569.22;;;8.42;84.80
57412;BME280;43247;52.828;-8.980;2023-03-23T00:26:35;98567.01;;;8.42;84.76
57412;BME280;43247;52.828;-8.980;2023-03-23T00:27:34;98564.78;;;8.42;84.80
57412;BME280;43247;52.828;-8.980;2023-03-23T00:28:34;98562.83;;;8.42;84.78
57412;BME280;43247;52.828;-8.980;2023-03-23T00:29:34;98560.98;;;8.41;84.79
57412;BME280;43247;52.828;-8.980;2023-03-23T00:30:34;98563.36;;;8.41;84.77
57412;BME280;43247;52.828;-8.980;2023-03-23T00:31:34;98565.91;;;8.41;84.80
57412;BME280;43247;52.828;-8.980;2023-03-23T00:32:35;98564.13;;;8.40;84.83
57412;BME280;43247;52.828;-8.980;2023-03-23T00:33:37;98561.26;;;8.40;84.81
57412;BME280;43247;52.828;-8.980;2023-03-23T00:34:35;98559.75;;;8.41;84.80
57412;BME280;43247;52.828;-8.980;2023-03-23T00:35:36;98553.55;;;8.40;84.80
57412;BME280;43247;52.828;-8.980;2023-03-23T00:36:35;98549.79;;;8.40;84.80
57412;BME280;43247;52.828;-8.980;2023-03-23T00:37:36;98551.75;;;8.40;84.85
57412;BME280;43247;52.828;-8.980;2023-03-23T00:38:38;98545.00;;;8.39;84.90
57412;BME280;43247;52.828;-8.980;2023-03-23T00:39:38;98535.18;;;8.39;84.87
57412;BME280;43247;52.828;-8.980;2023-03-23T00:40:37;98530.59;;;8.40;84.83
57412;BME280;43247;52.828;-8.980;2023-03-23T00:41:37;98527.56;;;8.39;84.84
57412;BME280;43247;52.828;-8.980;2023-03-23T00:42:37;98521.74;;;8.40;84.86
57412;BME280;43247;52.828;-8.980;2023-03-23T00:43:38;98522.34;;;8.40;84.83
57412;BME280;43247;52.828;-8.980;2023-03-23T00:44:38;98519.56;;;8.40;84.83
57412;BME280;43247;52.828;-8.980;2023-03-23T00:45:38;98521.71;;;8.39;84.87
57412;BME280;43247;52.828;-8.980;2023-03-23T00:46:38;98518.87;;;8.39;84.91
57412;BME280;43247;52.828;-8.980;2023-03-23T00:47:38;98518.96;;;8.39;84.94
57412;BME280;43247;52.828;-8.980;2023-03-23T00:48:39;98512.26;;;8.38;85.03
57412;BME280;43247;52.828;-8.980;2023-03-23T00:49:39;98508.96;;;8.38;84.98
57412;BME280;43247;52.828;-8.980;2023-03-23T00:50:39;98508.41;;;8.36;85.03
57412;BME280;43247;52.828;-8.980;2023-03-23T00:51:39;98506.99;;;8.37;85.03
57412;BME280;43247;52.828;-8.980;2023-03-23T00:52:39;98509.52;;;8.37;85.02
57412;BME280;43247;52.828;-8.980;2023-03-23T00:53:40;98512.34;;;8.37;84.98
57412;BME280;43247;52.828;-8.980;2023-03-23T00:54:40;98518.85;;;8.37;85.01
57412;BME280;43247;52.828;-8.980;2023-03-23T00:55:40;98520.29;;;8.37;84.97
57412;BME280;43247;52.828;-8.980;2023-03-23T00:56:40;98523.70;;;8.36;84.99
57412;BME280;43247;52.828;-8.980;2023-03-23T00:57:40;98520.85;;;8.37;84.98
57412;BME280;43247;52.828;-8.980;2023-03-23T00:58:42;98514.37;;;8.36;84.99
57412;BME280;43247;52.828;-8.980;2023-03-23T00:59:41;98519.23;;;8.36;84.99
57412;BME280;43247;52.828;-8.980;2023-03-23T01:00:42;98517.04;;;8.35;84.98
57412;BME280;43247;52.828;-8.980;2023-03-23T01:01:42;98514.32;;;8.35;84.99
57412;BME280;43247;52.828;-8.980;2023-03-23T01:02:42;98515.47;;;8.35;84.99
57412;BME280;43247;52.828;-8.980;2023-03-23T01:03:42;98521.10;;;8.35;84.99
57412;BME280;43247;52.828;-8.980;2023-03-23T01:04:42;98522.69;;;8.35;84.98
57412;BME280;43247;52.828;-8.980;2023-03-23T01:05:42;98521.05;;;8.35;85.01
57412;BME280;43247;52.828;-8.980;2023-03-23T01:06:44;98524.62;;;8.35;85.03
57412;BME280;43247;52.828;-8.980;2023-03-23T01:07:43;98526.33;;;8.34;85.02
57412;BME280;43247;52.828;-8.980;2023-03-23T01:08:43;98522.50;;;8.34;84.96
57412;BME280;43247;52.828;-8.980;2023-03-23T01:09:43;98530.51;;;8.34;85.05
57412;BME280;43247;52.828;-8.980;2023-03-23T01:10:44;98531.96;;;8.34;84.99
57412;BME280;43247;52.828;-8.980;2023-03-23T01:11:44;98533.49;;;8.34;84.97
57412;BME280;43247;52.828;-8.980;2023-03-23T01:12:44;98531.59;;;8.35;84.97
57412;BME280;43247;52.828;-8.980;2023-03-23T01:13:44;98532.88;;;8.35;84.94
57412;BME280;43247;52.828;-8.980;2023-03-23T01:14:44;98533.63;;;8.35;84.92
57412;BME280;43247;52.828;-8.980;2023-03-23T01:15:46;98536.70;;;8.34;84.90
57412;BME280;43247;52.828;-8.980;2023-03-23T01:16:45;98536.40;;;8.34;84.85
57412;BME280;43247;52.828;-8.980;2023-03-23T01:17:45;98536.87;;;8.34;84.89
57412;BME280;43247;52.828;-8.980;2023-03-23T01:18:45;98536.01;;;8.34;84.92
57412;BME280;43247;52.828;-8.980;2023-03-23T01:19:45;98533.77;;;8.34;84.87
57412;BME280;43247;52.828;-8.980;2023-03-23T01:20:45;98531.27;;;8.34;84.89
57412;BME280;43247;52.828;-8.980;2023-03-23T01:21:45;98527.48;;;8.34;84.89
57412;BME280;43247;52.828;-8.980;2023-03-23T01:22:46;98524.69;;;8.34;84.89
57412;BME280;43247;52.828;-8.980;2023-03-23T01:23:47;98527.96;;;8.34;84.92
57412;BME280;43247;52.828;-8.980;2023-03-23T01:24:46;98530.38;;;8.34;84.91
57412;BME280;43247;52.828;-8.980;2023-03-23T01:25:47;98530.98;;;8.33;84.97
57412;BME280;43247;52.828;-8.980;2023-03-23T01:26:47;98532.78;;;8.33;84.97
57412;BME280;43247;52.828;-8.980;2023-03-23T01:27:47;98533.29;;;8.33;84.99
57412;BME280;43247;52.828;-8.980;2023-03-23T01:28:47;98536.52;;;8.33;85.02
57412;BME280;43247;52.828;-8.980;2023-03-23T01:29:47;98538.66;;;8.33;85.01
57412;BME280;43247;52.828;-8.980;2023-03-23T01:30:47;98534.12;;;8.32;85.04
57412;BME280;43247;52.828;-8.980;2023-03-23T01:31:48;98532.94;;;8.33;85.04
57412;BME280;43247;52.828;-8.980;2023-03-23T01:32:48;98534.95;;;8.33;85.05
57412;BME280;43247;52.828;-8.980;2023-03-23T01:33:48;98532.47;;;8.33;85.11
57412;BME280;43247;52.828;-8.980;2023-03-23T01:34:48;98529.77;;;8.33;85.14
57412;BME280;43247;52.828;-8.980;2023-03-23T01:35:48;98527.61;;;8.33;85.15
57412;BME280;43247;52.828;-8.980;2023-03-23T01:36:49;98530.55;;;8.34;85.18
57412;BME280;43247;52.828;-8.980;2023-03-23T01:37:49;98532.87;;;8.34;85.18
57412;BME280;43247;52.828;-8.980;2023-03-23T01:38:50;98534.63;;;8.34;85.17
57412;BME280;43247;52.828;-8.980;2023-03-23T01:39:49;98534.30;;;8.34;85.15
57412;BME280;43247;52.828;-8.980;2023-03-23T01:40:49;98533.37;;;8.34;85.16
57412;BME280;43247;52.828;-8.980;2023-03-23T01:41:50;98533.52;;;8.34;85.22
57412;BME280;43247;52.828;-8.980;2023-03-23T01:42:50;98533.60;;;8.34;85.26
57412;BME280;43247;52.828;-8.980;2023-03-23T01:43:55;98532.38;;;8.35;85.23
57412;BME280;43247;52.828;-8.980;2023-03-23T01:45:50;98533.57;;;8.35;85.20
57412;BME280;43247;52.828;-8.980;2023-03-23T01:46:50;98531.60;;;8.34;85.21
57412;BME280;43247;52.828;-8.980;2023-03-23T01:47:55;98532.96;;;8.34;85.20
57412;BME280;43247;52.828;-8.980;2023-03-23T01:48:51;98535.81;;;8.34;85.21
57412;BME280;43247;52.828;-8.980;2023-03-23T01:49:51;98533.36;;;8.34;85.26
57412;BME280;43247;52.828;-8.980;2023-03-23T01:50:55;98532.48;;;8.35;85.25
57412;BME280;43247;52.828;-8.980;2023-03-23T01:51:53;98533.58;;;8.35;85.34
57412;BME280;43247;52.828;-8.980;2023-03-23T01:52:54;98536.08;;;8.35;85.34
57412;BME280;43247;52.828;-8.980;2023-03-23T01:53:54;98535.47;;;8.34;85.35
57412;BME280;43247;52.828;-8.980;2023-03-23T01:54:53;98534.02;;;8.35;85.32
57412;BME280;43247;52.828;-8.980;2023-03-23T01:55:54;98528.68;;;8.35;85.32
57412;BME280;43247;52.828;-8.980;2023-03-23T01:56:57;98525.76;;;8.35;85.36
57412;BME280;43247;52.828;-8.980;2023-03-23T01:57:54;98524.17;;;8.34;85.36
57412;BME280;43247;52.828;-8.980;2023-03-23T01:58:53;98524.95;;;8.35;85.42
57412;BME280;43247;52.828;-8.980;2023-03-23T01:59:55;98523.88;;;8.35;85.40
57412;BME280;43247;52.828;-8.980;2023-03-23T02:00:54;98523.72;;;8.35;85.38
57412;BME280;43247;52.828;-8.980;2023-03-23T02:01:54;98521.52;;;8.35;85.36
57412;BME280;43247;52.828;-8.980;2023-03-23T02:02:54;98519.43;;;8.35;85.35
57412;BME280;43247;52.828;-8.980;2023-03-23T02:03:56;98517.28;;;8.35;85.34
57412;BME280;43247;52.828;-8.980;2023-03-23T02:04:58;98521.82;;;8.34;85.39
57412;BME280;43247;52.828;-8.980;2023-03-23T02:05:55;98521.36;;;8.35;85.44
57412;BME280;43247;52.828;-8.980;2023-03-23T02:06:55;98517.31;;;8.35;85.45
57412;BME280;43247;52.828;-8.980;2023-03-23T02:07:57;98511.17;;;8.36;85.43
57412;BME280;43247;52.828;-8.980;2023-03-23T02:08:55;98511.94;;;8.36;85.38
57412;BME280;43247;52.828;-8.980;2023-03-23T02:09:55;98508.90;;;8.37;85.32
57412;BME280;43247;52.828;-8.980;2023-03-23T02:10:55;98504.62;;;8.37;85.32
57412;BME280;43247;52.828;-8.980;2023-03-23T02:11:56;98500.39;;;8.38;85.28
57412;BME280;43247;52.828;-8.980;2023-03-23T02:12:55;98500.56;;;8.38;85.30
57412;BME280;43247;52.828;-8.980;2023-03-23T02:13:56;98501.33;;;8.38;85.29
57412;BME280;43247;52.828;-8.980;2023-03-23T02:14:56;98499.80;;;8.38;85.27
57412;BME280;43247;52.828;-8.980;2023-03-23T02:16:03;98501.94;;;8.38;85.24
57412;BME280;43247;52.828;-8.980;2023-03-23T02:17:02;98503.49;;;8.38;85.24
57412;BME280;43247;52.828;-8.980;2023-03-23T02:18:03;98502.88;;;8.38;85.22
57412;BME280;43247;52.828;-8.980;2023-03-23T02:19:03;98508.05;;;8.38;85.25
57412;BME280;43247;52.828;-8.980;2023-03-23T02:20:11;98511.58;;;8.38;85.25
57412;BME280;43247;52.828;-8.980;2023-03-23T02:21:12;98515.31;;;8.38;85.28
57412;BME280;43247;52.828;-8.980;2023-03-23T02:22:07;98516.49;;;8.38;85.30
57412;BME280;43247;52.828;-8.980;2023-03-23T02:23:11;98515.76;;;8.38;85.28
57412;BME280;43247;52.828;-8.980;2023-03-23T02:24:11;98511.32;;;8.38;85.23
57412;BME280;43247;52.828;-8.980;2023-03-23T02:25:10;98514.40;;;8.38;85.31
57412;BME280;43247;52.828;-8.980;2023-03-23T02:26:03;98514.70;;;8.38;85.25
57412;BME280;43247;52.828;-8.980;2023-03-23T02:27:01;98515.14;;;8.38;85.30
57412;BME280;43247;52.828;-8.980;2023-03-23T02:28:11;98507.79;;;8.38;85.32
57412;BME280;43247;52.828;-8.980;2023-03-23T02:29:10;98509.20;;;8.39;85.26
57412;BME280;43247;52.828;-8.980;2023-03-23T02:30:10;98508.41;;;8.38;85.32
57412;BME280;43247;52.828;-8.980;2023-03-23T02:31:11;98507.16;;;8.38;85.42
57412;BME280;43247;52.828;-8.980;2023-03-23T02:32:07;98505.85;;;8.38;85.46
57412;BME280;43247;52.828;-8.980;2023-03-23T02:33:08;98503.24;;;8.37;85.30
57412;BME280;43247;52.828;-8.980;2023-03-23T02:34:02;98500.07;;;8.38;85.08
57412;BME280;43247;52.828;-8.980;2023-03-23T02:35:03;98496.40;;;8.38;84.99
57412;BME280;43247;52.828;-8.980;2023-03-23T02:36:03;98492.90;;;8.38;84.96
57412;BME280;43247;52.828;-8.980;2023-03-23T02:37:02;98491.22;;;8.37;84.94
57412;BME280;43247;52.828;-8.980;2023-03-23T02:38:02;98497.33;;;8.37;84.76
57412;BME280;43247;52.828;-8.980;2023-03-23T02:39:03;98497.19;;;8.36;84.84
57412;BME280;43247;52.828;-8.980;2023-03-23T02:40:05;98496.28;;;8.38;84.72
57412;BME280;43247;52.828;-8.980;2023-03-23T02:41:02;98501.97;;;8.38;84.73
57412;BME280;43247;52.828;-8.980;2023-03-23T02:42:04;98505.76;;;8.38;84.77
57412;BME280;43247;52.828;-8.980;2023-03-23T02:43:02;98504.82;;;8.40;84.71
57412;BME280;43247;52.828;-8.980;2023-03-23T02:44:02;98505.33;;;8.40;84.57
57412;BME280;43247;52.828;-8.980;2023-03-23T02:45:04;98500.83;;;8.42;84.61
57412;BME280;43247;52.828;-8.980;2023-03-23T02:46:04;98500.98;;;8.44;84.60
57412;BME280;43247;52.828;-8.980;2023-03-23T02:47:06;98502.37;;;8.45;84.54
57412;BME280;43247;52.828;-8.980;2023-03-23T02:48:03;98502.43;;;8.46;84.58
57412;BME280;43247;52.828;-8.980;2023-03-23T02:49:03;98501.56;;;8.47;84.58
57412;BME280;43247;52.828;-8.980;2023-03-23T02:50:05;98498.53;;;8.45;84.51
57412;BME280;43247;52.828;-8.980;2023-03-23T02:51:04;98502.04;;;8.46;84.54
57412;BME280;43247;52.828;-8.980;2023-03-23T02:52:08;98501.58;;;8.47;84.57
57412;BME280;43247;52.828;-8.980;2023-03-23T02:53:07;98498.50;;;8.47;84.57
57412;BME280;43247;52.828;-8.980;2023-03-23T02:54:04;98497.71;;;8.48;84.52
57412;BME280;43247;52.828;-8.980;2023-03-23T02:55:05;98500.57;;;8.49;84.56
57412;BME280;43247;52.828;-8.980;2023-03-23T02:56:06;98501.81;;;8.48;84.56
57412;BME280;43247;52.828;-8.980;2023-03-23T02:57:05;98501.13;;;8.46;84.60
57412;BME280;43247;52.828;-8.980;2023-03-23T02:58:05;98501.03;;;8.47;84.62
57412;BME280;43247;52.828;-8.980;2023-03-23T02:59:05;98501.21;;;8.47;84.59
57412;BME280;43247;52.828;-8.980;2023-03-23T03:00:07;98499.25;;;8.46;84.63
57412;BME280;43247;52.828;-8.980;2023-03-23T03:01:13;98503.28;;;8.46;84.66
57412;BME280;43247;52.828;-8.980;2023-03-23T03:02:07;98504.16;;;8.46;84.65
57412;BME280;43247;52.828;-8.980;2023-03-23T03:03:11;98504.11;;;8.46;84.69
57412;BME280;43247;52.828;-8.980;2023-03-23T03:04:10;98500.58;;;8.45;84.74
57412;BME280;43247;52.828;-8.980;2023-03-23T03:05:13;98495.11;;;8.45;84.74
57412;BME280;43247;52.828;-8.980;2023-03-23T03:06:12;98498.09;;;8.45;84.75
57412;BME280;43247;52.828;-8.980;2023-03-23T03:08:15;98499.91;;;8.47;84.75
57412;BME280;43247;52.828;-8.980;2023-03-23T03:09:11;98494.67;;;8.47;84.78
57412;BME280;43247;52.828;-8.980;2023-03-23T03:10:11;98491.57;;;8.47;84.73
57412;BME280;43247;52.828;-8.980;2023-03-23T03:11:08;98484.30;;;8.46;84.81
57412;BME280;43247;52.828;-8.980;2023-03-23T03:12:11;98479.49;;;8.47;84.78
57412;BME280;43247;52.828;-8.980;2023-03-23T03:13:11;98481.32;;;8.47;84.76
57412;BME280;43247;52.828;-8.980;2023-03-23T03:14:10;98474.15;;;8.47;84.72
57412;BME280;43247;52.828;-8.980;2023-03-23T03:15:17;98472.88;;;8.47;84.77
57412;BME280;43247;52.828;-8.980;2023-03-23T03:16:16;98473.99;;;8.47;84.82
57412;BME280;43247;52.828;-8.980;2023-03-23T03:17:14;98482.19;;;8.47;84.81
57412;BME280;43247;52.828;-8.980;2023-03-23T03:18:12;98481.05;;;8.47;84.78
57412;BME280;43247;52.828;-8.980;2023-03-23T03:19:11;98487.36;;;8.47;84.80
57412;BME280;43247;52.828;-8.980;2023-03-23T03:20:10;98491.19;;;8.46;84.78
57412;BME280;43247;52.828;-8.980;2023-03-23T03:21:12;98491.78;;;8.46;84.84
57412;BME280;43247;52.828;-8.980;2023-03-23T03:22:09;98493.51;;;8.46;84.81
57412;BME280;43247;52.828;-8.980;2023-03-23T03:23:10;98490.88;;;8.46;84.78
57412;BME280;43247;52.828;-8.980;2023-03-23T03:24:12;98490.39;;;8.46;84.76
57412;BME280;43247;52.828;-8.980;2023-03-23T03:25:11;98484.00;;;8.45;84.78
57412;BME280;43247;52.828;-8.980;2023-03-23T03:26:11;98483.68;;;8.45;84.84
57412;BME280;43247;52.828;-8.980;2023-03-23T03:27:12;98483.45;;;8.45;84.78
57412;BME280;43247;52.828;-8.980;2023-03-23T03:28:10;98484.71;;;8.45;84.78
57412;BME280;43247;52.828;-8.980;2023-03-23T03:29:10;98484.01;;;8.44;84.90
57412;BME280;43247;52.828;-8.980;2023-03-23T03:30:12;98487.83;;;8.44;84.91
57412;BME280;43247;52.828;-8.980;2023-03-23T03:31:11;98483.25;;;8.45;84.84
57412;BME280;43247;52.828;-8.980;2023-03-23T03:32:14;98483.68;;;8.44;84.84
57412;BME280;43247;52.828;-8.980;2023-03-23T03:33:11;98481.17;;;8.44;84.91
57412;BME280;43247;52.828;-8.980;2023-03-23T03:34:12;98478.00;;;8.44;84.93
57412;BME280;43247;52.828;-8.980;2023-03-23T03:35:11;98477.75;;;8.44;84.96
57412;BME280;43247;52.828;-8.980;2023-03-23T03:36:16;98476.17;;;8.45;84.94
57412;BME280;43247;52.828;-8.980;2023-03-23T03:37:12;98475.11;;;8.44;84.98
57412;BME280;43247;52.828;-8.980;2023-03-23T03:38:12;98473.15;;;8.44;85.01
57412;BME280;43247;52.828;-8.980;2023-03-23T03:39:14;98466.98;;;8.46;84.96
57412;BME280;43247;52.828;-8.980;2023-03-23T03:40:14;98469.21;;;8.45;84.96
57412;BME280;43247;52.828;-8.980;2023-03-23T03:41:12;98470.40;;;8.45;84.95
57412;BME280;43247;52.828;-8.980;2023-03-23T03:42:13;98472.33;;;8.46;84.98
57412;BME280;43247;52.828;-8.980;2023-03-23T03:43:13;98474.70;;;8.45;85.01
57412;BME280;43247;52.828;-8.980;2023-03-23T03:44:13;98478.31;;;8.46;85.04
57412;BME280;43247;52.828;-8.980;2023-03-23T03:45:15;98476.74;;;8.45;85.03
57412;BME280;43247;52.828;-8.980;2023-03-23T03:46:13;98473.47;;;8.45;85.06
57412;BME280;43247;52.828;-8.980;2023-03-23T03:47:14;98474.55;;;8.45;85.04
57412;BME280;43247;52.828;-8.980;2023-03-23T03:48:14;98471.45;;;8.45;85.06
57412;BME280;43247;52.828;-8.980;2023-03-23T03:49:14;98469.59;;;8.45;85.08
57412;BME280;43247;52.828;-8.980;2023-03-23T03:50:14;98466.61;;;8.45;85.08
57412;BME280;43247;52.828;-8.980;2023-03-23T03:51:14;98467.17;;;8.46;85.05
57412;BME280;43247;52.828;-8.980;2023-03-23T03:52:14;98467.07;;;8.46;85.08
57412;BME280;43247;52.828;-8.980;2023-03-23T03:53:15;98468.42;;;8.47;85.04
57412;BME280;43247;52.828;-8.980;2023-03-23T03:54:15;98467.92;;;8.48;85.03
57412;BME280;43247;52.828;-8.980;2023-03-23T03:55:15;98468.42;;;8.48;85.03
57412;BME280;43247;52.828;-8.980;2023-03-23T03:56:15;98466.02;;;8.48;84.99
57412;BME280;43247;52.828;-8.980;2023-03-23T03:57:15;98466.40;;;8.48;85.04
57412;BME280;43247;52.828;-8.980;2023-03-23T03:58:16;98465.84;;;8.46;85.17
57412;BME280;43247;52.828;-8.980;2023-03-23T03:59:16;98467.49;;;8.44;85.17
57412;BME280;43247;52.828;-8.980;2023-03-23T04:00:17;98465.47;;;8.45;85.05
57412;BME280;43247;52.828;-8.980;2023-03-23T04:01:17;98466.15;;;8.48;84.93
57412;BME280;43247;52.828;-8.980;2023-03-23T04:02:17;98465.67;;;8.48;84.87
57412;BME280;43247;52.828;-8.980;2023-03-23T04:03:16;98463.44;;;8.47;84.82
57412;BME280;43247;52.828;-8.980;2023-03-23T04:04:17;98462.77;;;8.48;84.75
57412;BME280;43247;52.828;-8.980;2023-03-23T04:05:17;98464.37;;;8.48;84.74
57412;BME280;43247;52.828;-8.980;2023-03-23T04:06:17;98466.51;;;8.49;84.61
57412;BME280;43247;52.828;-8.980;2023-03-23T04:07:17;98463.25;;;8.50;84.64
57412;BME280;43247;52.828;-8.980;2023-03-23T04:08:17;98466.29;;;8.51;84.62
57412;BME280;43247;52.828;-8.980;2023-03-23T04:09:17;98466.52;;;8.51;84.58
57412;BME280;43247;52.828;-8.980;2023-03-23T04:10:19;98468.32;;;8.52;84.55
57412;BME280;43247;52.828;-8.980;2023-03-23T04:11:18;98467.43;;;8.53;84.59
57412;BME280;43247;52.828;-8.980;2023-03-23T04:12:18;98467.25;;;8.52;84.52
57412;BME280;43247;52.828;-8.980;2023-03-23T04:13:19;98466.78;;;8.51;84.44
57412;BME280;43247;52.828;-8.980;2023-03-23T04:14:19;98468.21;;;8.48;84.41
57412;BME280;43247;52.828;-8.980;2023-03-23T04:15:19;98470.94;;;8.48;84.54
57412;BME280;43247;52.828;-8.980;2023-03-23T04:16:19;98470.87;;;8.49;84.43
57412;BME280;43247;52.828;-8.980;2023-03-23T04:17:19;98468.98;;;8.47;84.42
57412;BME280;43247;52.828;-8.980;2023-03-23T04:18:20;98466.83;;;8.49;84.43
57412;BME280;43247;52.828;-8.980;2023-03-23T04:19:20;98467.11;;;8.50;84.37
57412;BME280;43247;52.828;-8.980;2023-03-23T04:20:20;98467.10;;;8.53;84.39
57412;BME280;43247;52.828;-8.980;2023-03-23T04:21:20;98469.32;;;8.52;84.42
57412;BME280;43247;52.828;-8.980;2023-03-23T04:22:20;98466.95;;;8.54;84.44
57412;BME280;43247;52.828;-8.980;2023-03-23T04:23:21;98465.99;;;8.52;84.21
57412;BME280;43247;52.828;-8.980;2023-03-23T04:24:21;98466.88;;;8.51;84.45
57412;BME280;43247;52.828;-8.980;2023-03-23T04:25:21;98463.37;;;8.51;84.38
57412;BME280;43247;52.828;-8.980;2023-03-23T04:26:21;98464.06;;;8.52;84.51
57412;BME280;43247;52.828;-8.980;2023-03-23T04:27:21;98463.28;;;8.52;84.46
57412;BME280;43247;52.828;-8.980;2023-03-23T04:28:22;98466.93;;;8.51;84.43
57412;BME280;43247;52.828;-8.980;2023-03-23T04:29:21;98462.42;;;8.49;84.25
57412;BME280;43247;52.828;-8.980;2023-03-23T04:30:24;98465.90;;;8.48;84.39
57412;BME280;43247;52.828;-8.980;2023-03-23T04:31:22;98468.12;;;8.47;84.40
57412;BME280;43247;52.828;-8.980;2023-03-23T04:32:22;98467.89;;;8.48;84.34
57412;BME280;43247;52.828;-8.980;2023-03-23T04:33:24;98465.52;;;8.48;84.41
57412;BME280;43247;52.828;-8.980;2023-03-23T04:34:23;98470.57;;;8.50;84.42
57412;BME280;43247;52.828;-8.980;2023-03-23T04:35:24;98470.61;;;8.50;84.33
57412;BME280;43247;52.828;-8.980;2023-03-23T04:36:23;98472.98;;;8.51;84.42
57412;BME280;43247;52.828;-8.980;2023-03-23T04:37:24;98473.81;;;8.52;84.32
57412;BME280;43247;52.828;-8.980;2023-03-23T04:38:24;98474.84;;;8.53;84.38
57412;BME280;43247;52.828;-8.980;2023-03-23T04:39:24;98473.00;;;8.52;84.39
57412;BME280;43247;52.828;-8.980;2023-03-23T04:40:25;98467.51;;;8.53;84.44
57412;BME280;43247;52.828;-8.980;2023-03-23T04:41:25;98465.19;;;8.52;84.41
57412;BME280;43247;52.828;-8.980;2023-03-23T04:42:27;98469.67;;;8.53;84.46
57412;BME280;43247;52.828;-8.980;2023-03-23T04:43:26;98470.49;;;8.53;84.43
57412;BME280;43247;52.828;-8.980;2023-03-23T04:44:26;98460.51;;;8.53;84.33
57412;BME280;43247;52.828;-8.980;2023-03-23T04:45:26;98460.78;;;8.53;84.50
57412;BME280;43247;52.828;-8.980;2023-03-23T04:46:26;98463.35;;;8.52;84.57
57412;BME280;43247;52.828;-8.980;2023-03-23T04:47:27;98459.63;;;8.49;84.46
57412;BME280;43247;52.828;-8.980;2023-03-23T04:48:28;98460.13;;;8.51;84.50
57412;BME280;43247;52.828;-8.980;2023-03-23T04:49:27;98459.36;;;8.51;84.45
57412;BME280;43247;52.828;-8.980;2023-03-23T04:50:29;98462.63;;;8.49;84.48
57412;BME280;43247;52.828;-8.980;2023-03-23T04:51:29;98458.77;;;8.48;84.42
57412;BME280;43247;52.828;-8.980;2023-03-23T04:52:28;98459.36;;;8.48;84.37
57412;BME280;43247;52.828;-8.980;2023-03-23T04:53:28;98460.31;;;8.48;84.39
57412;BME280;43247;52.828;-8.980;2023-03-23T04:54:28;98460.40;;;8.45;84.42
57412;BME280;43247;52.828;-8.980;2023-03-23T04:55:29;98463.27;;;8.47;84.45
57412;BME280;43247;52.828;-8.980;2023-03-23T04:56:29;98463.44;;;8.48;84.55
57412;BME280;43247;52.828;-8.980;2023-03-23T04:57:29;98466.30;;;8.49;84.39
57412;BME280;43247;52.828;-8.980;2023-03-23T04:58:29;98465.91;;;8.50;84.37
57412;BME280;43247;52.828;-8.980;2023-03-23T04:59:29;98467.61;;;8.50;84.49
57412;BME280;43247;52.828;-8.980;2023-03-23T05:00:30;98464.84;;;8.50;84.48
57412;BME280;43247;52.828;-8.980;2023-03-23T05:01:30;98464.60;;;8.50;84.44
57412;BME280;43247;52.828;-8.980;2023-03-23T05:02:30;98467.48;;;8.50;84.53
57412;BME280;43247;52.828;-8.980;2023-03-23T05:03:30;98469.96;;;8.50;84.48
57412;BME280;43247;52.828;-8.980;2023-03-23T05:04:30;98472.85;;;8.51;84.50
57412;BME280;43247;52.828;-8.980;2023-03-23T05:05:30;98474.48;;;8.52;84.44
57412;BME280;43247;52.828;-8.980;2023-03-23T05:06:30;98474.32;;;8.51;84.56
57412;BME280;43247;52.828;-8.980;2023-03-23T05:07:31;98473.88;;;8.51;84.48
57412;BME280;43247;52.828;-8.980;2023-03-23T05:08:31;98471.41;;;8.49;84.53
57412;BME280;43247;52.828;-8.980;2023-03-23T05:09:31;98466.96;;;8.49;84.53
57412;BME280;43247;52.828;-8.980;2023-03-23T05:10:31;98465.67;;;8.49;84.49
57412;BME280;43247;52.828;-8.980;2023-03-23T05:11:31;98468.57;;;8.48;84.53
57412;BME280;43247;52.828;-8.980;2023-03-23T05:12:32;98471.17;;;8.49;84.54
57412;BME280;43247;52.828;-8.980;2023-03-23T05:13:32;98467.68;;;8.48;84.54
57412;BME280;43247;52.828;-8.980;2023-03-23T05:14:32;98471.37;;;8.48;84.48
57412;BME280;43247;52.828;-8.980;2023-03-23T05:15:32;98471.66;;;8.47;84.53
57412;BME280;43247;52.828;-8.980;2023-03-23T05:16:32;98474.82;;;8.47;84.52
57412;BME280;43247;52.828;-8.980;2023-03-23T05:17:33;98472.04;;;8.46;84.50
57412;BME280;43247;52.828;-8.980;2023-03-23T05:18:33;98473.99;;;8.45;84.56
57412;BME280;43247;52.828;-8.980;2023-03-23T05:19:33;98474.02;;;8.45;84.55
57412;BME280;43247;52.828;-8.980;2023-03-23T05:20:33;98477.01;;;8.44;84.57